Time;durP1;ratioP1;P1;durP2;ratioP2;P2;SDS_P1;SDS_P2;PMS_P1;PMS_P2;Temp;Humidity;BMP_temperature;BMP_pressure;BME280_temperature;BME280_humidity;BME280_pressure;Samples;Min_cycle;Max_cycle;Signal;HPM_P1;HPM_P2
2022/03/31 00:00:38;;;;;;;29.23;14.27;;;;;;;6.56;100.00;99015.23;1743879;81;21022;-70
2022/03/31 00:03:09;;;;;;;25.17;14.33;;;;;;;6.49;100.00;99007.02;1766304;81;21530;-70
2022/03/31 00:05:38;;;;;;;32.13;15.20;;;;;;;6.45;100.00;99007.03;1721449;82;21053;-69
2022/03/31 00:08:07;;;;;;;26.63;15.00;;;;;;;6.43;100.00;98995.11;1702991;83;21583;-69
2022/03/31 00:10:41;;;;;;;25.67;15.03;;;;;;;6.38;100.00;98997.47;1693821;82;21079;-70
2022/03/31 00:13:10;;;;;;;;;;;;;;;6.35;100.00;98990.25;1691941;84;21086;-70
2022/03/31 00:15:38;;;;;;;27.50;14.90;;;;;;;6.31;100.00;98986.24;1651201;83;20119;-70
2022/03/31 00:18:07;;;;;;;29.80;14.77;;;;;;;6.26;100.00;98974.66;1689355;85;21543;-70
2022/03/31 00:20:35;;;;;;;28.17;15.53;;;;;;;6.22;100.00;98967.45;1687184;84;21058;-69
2022/03/31 00:25:35;;;;;;;28.03;14.97;;;;;;;6.12;100.00;98961.41;1628992;87;21049;-70
2022/03/31 00:28:03;;;;;;;26.33;15.27;;;;;;;6.08;100.00;98967.62;1594557;88;21121;-69
2022/03/31 00:30:33;;;;;;;27.87;15.33;;;;;;;6.05;100.00;98955.04;1624204;88;21577;-69
2022/03/31 00:33:00;;;;;;;29.97;13.73;;;;;;;5.98;100.00;98953.53;1603915;89;21123;-70
2022/03/31 00:35:29;;;;;;;28.47;14.00;;;;;;;5.94;100.00;98955.36;1621095;87;21862;-70
2022/03/31 00:37:56;;;;;;;28.30;12.80;;;;;;;5.90;100.00;98949.49;1600983;89;21157;-70
2022/03/31 00:40:24;;;;;;;24.17;12.87;;;;;;;5.87;100.00;98941.77;1600361;88;21546;-70
2022/03/31 00:42:56;;;;;;;26.80;14.07;;;;;;;5.83;100.00;98937.24;1619701;87;21038;-70
2022/03/31 00:45:27;;;;;;;26.33;13.20;;;;;;;5.77;100.00;98940.61;1623018;87;21617;-70
2022/03/31 00:47:55;;;;;;;27.77;12.73;;;;;;;5.74;100.00;98937.39;1599014;88;21090;-69
2022/03/31 00:50:22;;;;;;;26.00;12.43;;;;;;;5.68;100.00;98927.70;1600797;88;21586;-70
2022/03/31 00:52:50;;;;;;;24.70;12.13;;;;;;;5.67;100.00;98926.00;1604679;88;21076;-69
2022/03/31 00:55:21;;;;;;;26.70;12.07;;;;;;;5.65;100.00;98915.95;1627984;87;21095;-69
2022/03/31 00:57:55;;;;;;;26.30;13.27;;;;;;;5.65;100.00;98907.08;1625321;87;21050;-69
2022/03/31 01:00:19;;;;;;;22.13;12.03;;;;;;;5.63;100.00;98899.20;1627941;87;21078;-70
2022/03/31 01:02:47;;;;;;;24.77;12.57;;;;;;;5.62;100.00;98902.87;1630085;88;21079;-71
2022/03/31 01:05:16;;;;;;;23.80;12.00;;;;;;;5.59;100.00;98891.13;1602120;88;21053;-71
2022/03/31 01:07:44;;;;;;;25.47;12.10;;;;;;;5.60;100.00;98891.98;1626025;88;21124;-70
2022/03/31 01:10:13;;;;;;;24.17;11.20;;;;;;;5.58;100.00;98878.74;1664917;85;21580;-70
2022/03/31 01:12:41;;;;;;;24.33;10.90;;;;;;;5.57;100.00;98879.73;1685416;84;21926;-69
2022/03/31 01:15:18;;;;;;;24.57;11.33;;;;;;;5.58;100.00;98875.20;1665721;85;21057;-71
2022/03/31 01:17:48;;;;;;;25.30;11.23;;;;;;;5.58;100.00;98869.84;1608166;89;21144;-70
2022/03/31 01:20:20;;;;;;;27.40;12.00;;;;;;;5.58;100.00;98854.61;1629841;88;21058;-70
2022/03/31 01:22:50;;;;;;;25.87;12.00;;;;;;;5.58;100.00;98840.34;1643852;86;21026;-70
2022/03/31 01:25:17;;;;;;;22.83;11.53;;;;;;;5.59;100.00;98844.20;1602777;89;21135;-70
2022/03/31 01:27:45;;;;;;;25.43;11.60;;;;;;;5.59;100.00;98832.12;1606163;88;21547;-69
2022/03/31 01:30:18;;;;;;;24.50;11.43;;;;;;;5.59;100.00;98820.58;1629994;87;21103;-71
2022/03/31 01:32:47;;;;;;;21.40;10.63;;;;;;;5.59;100.00;98817.38;1576639;90;21538;-70
2022/03/31 01:35:14;;;;;;;24.00;10.97;;;;;;;5.60;100.00;98813.70;1580061;90;21057;-69
2022/03/31 01:37:43;;;;;;;23.23;11.07;;;;;;;5.62;100.00;98806.33;1579679;89;21089;-70
2022/03/31 01:40:11;;;;;;;23.27;10.87;;;;;;;5.63;100.00;98789.24;1603650;89;21083;-70
2022/03/31 01:42:38;;;;;;;26.97;11.17;;;;;;;5.65;100.00;98790.41;1599347;89;21604;-69
2022/03/31 01:45:08;;;;;;;25.53;11.03;;;;;;;5.65;100.00;98775.16;1603368;89;21091;-68
2022/03/31 01:47:36;;;;;;;28.90;11.63;;;;;;;5.66;100.00;98762.06;1604232;89;21075;-70
2022/03/31 01:50:04;;;;;;;22.53;11.47;;;;;;;5.69;100.00;98754.19;1602122;90;21151;-70
2022/03/31 01:52:32;;;;;;;24.00;11.13;;;;;;;5.72;100.00;98739.11;1602430;89;21615;-69
2022/03/31 01:54:59;;;;;;;23.03;11.87;;;;;;;5.76;100.00;98728.87;1601827;89;21118;-70
2022/03/31 01:57:26;;;;;;;25.33;11.97;;;;;;;5.76;100.00;98721.66;1593715;90;21088;-69
2022/03/31 01:59:54;;;;;;;23.37;10.70;;;;;;;5.75;100.00;98719.97;1593713;88;21064;-70
2022/03/31 02:02:22;;;;;;;26.37;10.60;;;;;;;5.78;100.00;98710.23;1594266;90;21076;-69
2022/03/31 02:04:49;;;;;;;26.97;11.17;;;;;;;5.80;100.00;98695.31;1593954;89;21095;-70
2022/03/31 02:07:17;;;;;;;28.07;11.60;;;;;;;5.80;100.00;98681.39;1593870;89;21554;-69
2022/03/31 02:09:44;;;;;;;25.50;11.13;;;;;;;5.80;100.00;98672.00;1593923;89;21489;-70
2022/03/31 02:12:13;;;;;;;23.03;10.97;;;;;;;5.82;100.00;98659.77;1593779;89;21107;-69
2022/03/31 02:14:41;;;;;;;28.63;12.17;;;;;;;5.81;100.00;98650.89;1588480;89;21113;-69
2022/03/31 02:17:09;;;;;;;26.27;12.10;;;;;;;5.81;100.00;98636.13;1584769;90;21117;-70
2022/03/31 02:19:36;;;;;;;25.17;12.07;;;;;;;5.83;100.00;98630.09;1590518;89;21138;-69
2022/03/31 02:22:04;;;;;;;25.03;11.67;;;;;;;5.84;100.00;98632.25;1581123;91;21097;-70
2022/03/31 02:24:34;;;;;;;22.90;11.00;;;;;;;5.86;100.00;98608.77;1583002;91;21126;-69
2022/03/31 02:27:02;;;;;;;26.20;11.33;;;;;;;5.88;100.00;98604.09;1582635;89;21066;-70
2022/03/31 02:29:31;;;;;;;26.47;11.73;;;;;;;5.88;100.00;98596.03;1658381;83;21258;-71
2022/03/31 02:31:58;;;;;;;25.33;11.70;;;;;;;5.89;100.00;98593.16;1694710;83;21070;-70
2022/03/31 02:34:26;;;;;;;25.63;11.47;;;;;;;5.90;100.00;98585.96;1671756;85;21081;-71
2022/03/31 02:36:55;;;;;;;22.07;10.63;;;;;;;5.93;100.00;98583.42;1694444;84;21534;-69
2022/03/31 02:39:22;;;;;;;30.67;12.07;;;;;;;5.95;100.00;98579.56;1694720;85;21531;-70
2022/03/31 02:41:49;;;;;;;25.53;11.37;;;;;;;5.98;100.00;98577.05;1671273;85;21078;-70
2022/03/31 02:44:16;;;;;;;27.37;11.17;;;;;;;5.99;100.00;98576.05;1742463;81;21037;-71
2022/03/31 02:46:43;;;;;;;25.70;11.93;;;;;;;6.01;100.00;98572.67;1749967;81;21041;-69
2022/03/31 02:49:11;;;;;;;25.07;12.30;;;;;;;6.03;100.00;98567.45;1748120;81;21124;-68
2022/03/31 02:51:38;;;;;;;25.80;11.77;;;;;;;6.04;100.00;98569.13;1729820;81;21069;-69
2022/03/31 02:56:51;;;;;;;23.73;11.33;;;;;;;6.07;100.00;98564.76;1763493;79;21545;-70
2022/03/31 02:59:19;;;;;;;22.13;11.50;;;;;;;6.08;100.00;98554.84;1807980;79;21015;-69
2022/03/31 03:01:46;;;;;;;24.43;11.17;;;;;;;6.10;100.00;98562.21;1807396;79;21050;-70
2022/03/31 03:04:14;;;;;;;25.37;11.60;;;;;;;6.11;100.00;98554.50;1807941;79;21019;-69
2022/03/31 03:06:42;;;;;;;25.83;12.07;;;;;;;6.14;100.00;98555.98;1810519;79;21030;-70
2022/03/31 03:09:10;;;;;;;27.13;11.73;;;;;;;6.14;100.00;98558.66;1722203;82;21043;-70
2022/03/31 03:11:37;;;;;;;29.27;12.90;;;;;;;6.14;100.00;98546.58;1780050;79;21014;-70
2022/03/31 03:14:06;;;;;;;29.20;12.83;;;;;;;6.13;100.00;98544.41;1807742;79;21081;-70
2022/03/31 03:16:34;;;;;;;27.37;12.43;;;;;;;6.14;100.00;98542.56;1804181;79;21038;-71
2022/03/31 03:19:02;;;;;;;26.43;12.43;;;;;;;6.14;100.00;98542.04;1719898;82;21512;-69
2022/03/31 03:21:29;;;;;;;25.47;12.30;;;;;;;6.15;100.00;98543.73;1722288;82;21508;-69
2022/03/31 03:23:56;;;;;;;28.37;12.00;;;;;;;6.17;100.00;98540.87;1748168;82;21004;-71
2022/03/31 03:26:24;;;;;;;27.20;12.43;;;;;;;6.18;100.00;98539.34;1786535;79;21045;-71
2022/03/31 03:28:52;;;;;;;25.00;11.83;;;;;;;6.19;100.00;98528.09;1807600;79;21015;-69
2022/03/31 03:31:19;;;;;;;28.40;13.27;;;;;;;6.20;100.00;98521.20;1781468;79;21030;-70
2022/03/31 03:33:46;;;;;;;27.73;13.60;;;;;;;6.21;100.00;98520.17;1712468;82;21051;-70
2022/03/31 03:36:16;;;;;;;32.83;13.90;;;;;;;6.23;100.00;98515.98;1744183;82;21040;-69
2022/03/31 03:38:43;;;;;;;24.33;12.83;;;;;;;6.24;100.00;98520.34;1748291;81;21063;-69
2022/03/31 03:41:12;;;;;;;25.67;12.63;;;;;;;6.26;100.00;98519.13;1769192;81;21082;-71
2022/03/31 03:43:40;;;;;;;23.87;13.60;;;;;;;6.30;100.00;98519.61;1718531;82;21035;-70
2022/03/31 03:46:09;;;;;;;26.70;12.67;;;;;;;6.34;100.00;98514.70;1750906;82;21082;-69
2022/03/31 03:48:38;;;;;;;28.07;12.80;;;;;;;6.36;100.00;98501.45;1726928;82;21082;-68
2022/03/31 03:51:06;;;;;;;26.53;13.60;;;;;;;6.40;100.00;98510.80;1743240;80;21081;-70
2022/03/31 03:53:34;;;;;;;27.40;13.23;;;;;;;6.43;100.00;98498.36;1742287;82;21047;-70
2022/03/31 03:56:01;;;;;;;29.80;13.50;;;;;;;6.47;100.00;98510.91;1784401;79;21083;-70
2022/03/31 03:58:28;;;;;;;30.30;13.87;;;;;;;6.49;100.00;98514.76;1765825;80;21552;-70
2022/03/31 04:00:57;;;;;;;26.70;13.03;;;;;;;6.54;100.00;98513.19;1746912;81;21062;-70
2022/03/31 04:03:24;;;;;;;25.87;13.73;;;;;;;6.59;100.00;98501.91;1768544;81;21090;-70
2022/03/31 04:05:51;;;;;;;26.23;13.10;;;;;;;6.63;100.00;98495.15;1769829;81;21086;-71
2022/03/31 04:08:21;;;;;;;27.80;13.63;;;;;;;6.68;100.00;98499.46;1769520;81;21090;-70
2022/03/31 04:10:49;;;;;;;26.77;13.33;;;;;;;6.72;100.00;98492.69;1766639;81;21094;-70
2022/03/31 04:13:17;;;;;;;27.57;13.27;;;;;;;6.76;100.00;98495.33;1745642;80;21066;-70
2022/03/31 04:15:44;;;;;;;25.90;13.40;;;;;;;6.82;100.00;98493.27;1742249;81;21098;-70
2022/03/31 04:18:11;;;;;;;24.60;13.17;;;;;;;6.88;100.00;98505.63;1748331;81;21053;-70
2022/03/31 04:20:38;;;;;;;27.37;14.00;;;;;;;6.90;100.00;98496.36;1744115;81;21054;-71
2022/03/31 04:23:06;;;;;;;26.23;14.60;;;;;;;6.95;100.00;98489.09;1764086;81;21015;-70
2022/03/31 04:25:33;;;;;;;25.27;12.70;;;;;;;6.97;100.00;98477.64;1769030;81;20983;-70
2022/03/31 04:28:00;;;;;;;28.97;13.87;;;;;;;7.01;100.00;98480.27;1766942;80;21043;-69
2022/03/31 04:30:27;;;;;;;26.60;13.60;;;;;;;7.05;100.00;98476.22;1766241;81;21007;-70
2022/03/31 04:32:55;;;;;;;22.60;12.43;;;;;;;7.03;100.00;98483.12;1765981;81;21007;-70
2022/03/31 04:35:22;;;;;;;27.93;14.23;;;;;;;7.06;100.00;98477.04;1765703;81;21058;-70
2022/03/31 04:37:49;;;;;;;30.83;13.53;;;;;;;7.08;100.00;98475.00;1748894;81;21030;-70
2022/03/31 04:40:16;;;;;;;25.17;13.40;;;;;;;7.11;100.00;98466.56;1748707;81;21030;-69
2022/03/31 04:42:46;;;;;;;32.63;13.90;;;;;;;7.12;100.00;98462.34;1748011;81;21484;-70
2022/03/31 04:45:13;;;;;;;26.77;13.43;;;;;;;7.14;100.00;98471.58;1767939;81;21546;-70
2022/03/31 04:47:41;;;;;;;27.73;13.10;;;;;;;7.15;100.00;98459.30;1768917;81;21575;-70
2022/03/31 04:50:09;;;;;;;23.57;12.60;;;;;;;7.16;100.00;98466.32;1767146;81;21078;-71
2022/03/31 04:52:37;;;;;;;25.33;13.07;;;;;;;7.18;100.00;98472.86;1747128;81;21492;-71
2022/03/31 04:55:06;;;;;;;26.53;12.70;;;;;;;7.22;100.00;98478.17;1765557;81;21007;-70
2022/03/31 04:57:35;;;;;;;29.27;13.00;;;;;;;7.28;100.00;98480.61;1762150;81;21096;-71
2022/03/31 05:00:04;;;;;;;27.23;14.03;;;;;;;7.32;100.00;98479.23;1774936;81;21080;-70
2022/03/31 05:02:31;;;;;;;26.50;12.87;;;;;;;7.37;100.00;98495.64;1775690;80;21048;-74
2022/03/31 05:04:58;;;;;;;22.30;13.33;;;;;;;7.41;100.00;98491.55;1770427;81;21012;-70
2022/03/31 05:07:25;;;;;;;29.50;14.50;;;;;;;7.46;100.00;98501.75;1746268;81;21019;-70
2022/03/31 05:09:53;;;;;;;29.23;13.77;;;;;;;7.48;100.00;98495.66;1776200;81;21024;-71
2022/03/31 05:12:20;;;;;;;26.77;13.27;;;;;;;7.52;100.00;98515.25;1710202;82;21031;-70
2022/03/31 05:14:47;;;;;;;24.93;12.40;;;;;;;7.57;100.00;98512.00;1763344;81;21012;-72
2022/03/31 05:17:15;;;;;;;26.70;12.90;;;;;;;7.61;100.00;98521.36;1722033;81;21053;-70
2022/03/31 05:19:42;;;;;;;27.47;12.00;;;;;;;7.66;100.00;98527.53;1748037;81;21056;-72
2022/03/31 05:22:11;;;;;;;23.93;12.27;;;;;;;7.71;100.00;98535.86;1747001;81;21106;-71
2022/03/31 05:24:39;;;;;;;28.10;15.00;;;;;;;7.75;100.00;98543.35;1710578;82;21035;-70
2022/03/31 05:27:07;;;;;;;28.30;12.90;;;;;;;7.79;100.00;98548.70;1709723;83;21559;-71
2022/03/31 05:29:34;;;;;;;26.40;12.70;;;;;;;7.83;100.00;98546.98;1713372;83;21053;-69
2022/03/31 05:32:03;;;;;;;26.13;12.27;;;;;;;7.85;100.00;98553.00;1708636;83;21496;-70
2022/03/31 05:34:31;;;;;;;25.73;12.33;;;;;;;7.93;100.00;98555.55;1687677;83;21575;-72
2022/03/31 05:36:58;;;;;;;26.77;13.97;;;;;;;8.03;100.00;98555.26;1689844;83;21081;-70
2022/03/31 05:39:25;;;;;;;31.97;14.07;;;;;;;8.10;100.00;98563.72;1663333;85;21094;-71
2022/03/31 05:41:53;;;;;;;23.67;13.33;;;;;;;8.16;100.00;98568.84;1706103;83;21003;-70
2022/03/31 05:44:22;;;;;;;28.07;13.80;;;;;;;8.24;100.00;98575.98;1669804;84;21492;-70
2022/03/31 05:46:49;;;;;;;31.70;12.47;;;;;;;8.33;100.00;98583.73;1715292;83;21042;-71
2022/03/31 05:49:16;;;;;;;28.43;13.30;;;;;;;8.36;100.00;98592.78;1715473;83;21042;-70
2022/03/31 05:51:43;;;;;;;25.73;12.07;;;;;;;8.43;100.00;98594.23;1693924;83;21483;-72
2022/03/31 05:54:11;;;;;;;24.47;13.03;;;;;;;8.49;100.00;98608.26;1709282;83;21017;-72
2022/03/31 05:56:38;;;;;;;22.50;12.27;;;;;;;8.53;100.00;98625.72;1711779;84;21062;-71
2022/03/31 05:59:06;;;;;;;22.47;12.03;;;;;;;8.59;100.00;98624.61;1715238;84;21038;-70
2022/03/31 06:01:34;;;;;;;28.73;11.97;;;;;;;8.64;100.00;98649.97;1715162;84;21066;-70
2022/03/31 06:04:01;;;;;;;24.80;11.80;;;;;;;8.70;100.00;98665.36;1694324;84;21070;-71
2022/03/31 06:06:28;;;;;;;26.63;12.00;;;;;;;8.76;100.00;98669.66;1692980;83;21512;-70
2022/03/31 06:08:55;;;;;;;24.27;11.70;;;;;;;8.81;100.00;98685.56;1693359;84;21515;-70
2022/03/31 06:11:23;;;;;;;25.72;11.83;;;;;;;8.86;100.00;98692.56;1718983;83;21058;-70
2022/03/31 06:13:51;;;;;;;27.27;11.10;;;;;;;8.94;100.00;98706.41;1718081;83;21077;-71
2022/03/31 06:16:19;;;;;;;23.60;11.83;;;;;;;9.00;100.00;98699.44;1718910;83;21109;-72
2022/03/31 06:18:47;;;;;;;22.98;12.20;;;;;;;9.07;100.00;98699.80;1692641;84;21018;-72
2022/03/31 06:21:13;;;;;;;23.75;12.20;;;;;;;9.18;100.00;98711.10;1693521;84;21042;-70
2022/03/31 06:23:41;;;;;;;23.30;11.53;;;;;;;9.27;100.00;98724.23;1755148;81;21034;-69
2022/03/31 06:26:08;;;;;;;22.70;10.75;;;;;;;9.38;100.00;98730.13;1755959;80;21021;-71
2022/03/31 06:28:35;;;;;;;24.20;10.98;;;;;;;9.47;100.00;98733.00;1780210;80;21037;-70
2022/03/31 06:31:03;;;;;;;26.20;10.65;;;;;;;9.53;100.00;98747.08;1759489;80;21499;-70
2022/03/31 06:33:31;;;;;;;25.43;9.93;;;;;;;9.63;100.00;98748.06;1761226;80;21056;-70
2022/03/31 06:35:58;;;;;;;23.92;9.93;;;;;;;9.75;100.00;98742.97;1783410;80;21026;-74
2022/03/31 06:38:25;;;;;;;20.52;9.60;;;;;;;9.87;100.00;98780.01;1781415;80;21107;-71
2022/03/31 06:41:13;;;;;;;20.40;9.13;;;;;;;9.96;100.00;98792.02;1782816;80;21049;-71
2022/03/31 06:43:43;;;;;;;22.02;8.63;;;;;;;10.03;100.00;98796.42;1781297;80;21053;-69
2022/03/31 06:46:10;;;;;;;20.77;8.43;;;;;;;10.11;100.00;98810.80;1782543;80;21026;-71
2022/03/31 06:48:41;;;;;;;23.75;9.13;;;;;;;10.20;100.00;98802.88;1758452;80;21049;-71
2022/03/31 06:51:10;;;;;;;22.10;9.03;;;;;;;10.28;100.00;98814.03;1780861;80;21053;-70
2022/03/31 06:53:37;;;;;;;24.80;9.20;;;;;;;10.37;100.00;98813.69;1771564;80;21029;-70
2022/03/31 06:56:07;;;;;;;22.37;8.85;;;;;;;10.44;100.00;98813.73;1774932;79;20998;-71
2022/03/31 06:58:35;;;;;;;23.52;7.97;;;;;;;10.55;100.00;98810.97;1632908;86;21609;-71
2022/03/31 07:01:03;;;;;;;19.48;8.48;;;;;;;10.65;100.00;98822.25;1629168;87;21070;-72
2022/03/31 07:03:31;;;;;;;21.15;7.95;;;;;;;10.73;100.00;98829.34;1643397;86;21237;-71
2022/03/31 07:05:59;;;;;;;22.10;8.33;;;;;;;10.82;100.00;98832.21;1633812;86;21550;-70
2022/03/31 07:08:28;;;;;;;21.82;8.88;;;;;;;10.89;100.00;98837.63;1631957;87;21649;-71
2022/03/31 07:10:56;;;;;;;28.32;8.28;;;;;;;10.95;100.00;98856.58;1630260;87;21120;-70
2022/03/31 07:13:23;;;;;;;20.95;7.37;;;;;;;11.05;100.00;98860.77;1628038;88;21101;-70
2022/03/31 07:15:50;;;;;;;20.12;7.37;;;;;;;11.15;100.00;98863.41;1630829;88;21014;-71
2022/03/31 07:18:18;;;;;;;18.75;7.55;;;;;;;11.27;100.00;98857.41;1630254;88;21109;-71
2022/03/31 07:20:45;;;;;;;22.70;8.05;;;;;;;11.34;100.00;98867.20;1628735;88;21554;-72
2022/03/31 07:23:14;;;;;;;27.07;8.25;;;;;;;11.46;100.00;98876.92;1626781;88;21069;-71
2022/03/31 07:25:41;;;;;;;16.65;6.95;;;;;;;11.69;100.00;98880.60;1628494;88;21096;-68
2022/03/31 07:28:08;;;;;;;23.32;7.50;;;;;;;12.01;100.00;98870.02;1631700;87;21049;-72
2022/03/31 07:30:36;;;;;;;25.70;7.30;;;;;;;12.32;100.00;98887.50;1628174;88;21519;-71
2022/03/31 07:33:04;;;;;;;23.55;6.78;;;;;;;12.56;100.00;98896.03;1628319;87;22161;-70
2022/03/31 07:35:33;;;;;;;27.93;8.55;;;;;;;12.78;100.00;98918.28;1629472;88;21092;-70
2022/03/31 07:38:03;;;;;;;24.10;7.37;;;;;;;12.85;100.00;98923.98;1637389;87;21041;-71
2022/03/31 07:40:29;;;;;;;23.50;7.30;;;;;;;12.93;100.00;98939.22;1627708;88;21078;-70
2022/03/31 07:42:57;;;;;;;17.73;7.45;;;;;;;13.02;100.00;98942.00;1627525;88;21058;-70
2022/03/31 07:45:25;;;;;;;23.73;8.28;;;;;;;13.09;100.00;98944.17;1629390;88;21026;-71
2022/03/31 07:47:52;;;;;;;21.60;7.20;;;;;;;13.16;100.00;98932.47;1627568;88;21054;-71
2022/03/31 07:50:19;;;;;;;26.57;7.20;;;;;;;13.28;100.00;98944.32;1632269;87;21113;-70
2022/03/31 07:52:46;;;;;;;23.25;7.15;;;;;;;13.35;100.00;98949.23;1630734;87;21610;-71
2022/03/31 07:55:15;;;;;;;22.95;6.85;;;;;;;13.38;100.00;98947.95;1666460;83;21563;-71
2022/03/31 07:57:42;;;;;;;19.25;6.75;;;;;;;13.39;100.00;98938.23;1714566;84;21546;-72
2022/03/31 08:00:11;;;;;;;20.62;6.85;;;;;;;13.39;100.00;98959.13;1700581;84;21055;-71
2022/03/31 08:02:46;;;;;;;20.62;7.78;;;;;;;13.40;100.00;98967.06;1657911;85;21082;-71
2022/03/31 08:05:21;;;;;;;23.00;7.87;;;;;;;13.43;100.00;98971.22;1711492;84;20987;-70
2022/03/31 08:07:48;;;;;;;18.67;6.90;;;;;;;13.48;100.00;98974.95;1582451;88;21059;-72
2022/03/31 08:10:18;;;;;;;19.10;6.97;;;;;;;13.52;100.00;98963.13;1605405;88;21686;-73
2022/03/31 08:12:47;;;;;;;19.05;7.37;;;;;;;13.55;100.00;98961.34;1617391;89;21075;-71
2022/03/31 08:15:16;;;;;;;17.27;6.53;;;;;;;13.63;100.00;98967.89;1615884;89;21247;-71
2022/03/31 08:17:45;;;;;;;31.50;7.25;;;;;;;13.84;100.00;98968.05;1590720;88;21052;-71
2022/03/31 08:20:13;;;;;;;22.05;6.70;;;;;;;13.98;100.00;98969.34;1617953;88;21039;-72
2022/03/31 08:22:40;;;;;;;18.32;6.60;;;;;;;14.02;100.00;98974.64;1616099;88;21587;-71
2022/03/31 08:25:09;;;;;;;22.45;7.10;;;;;;;14.06;100.00;98979.97;1622801;87;21138;-69
2022/03/31 08:27:37;;;;;;;20.12;6.62;;;;;;;14.21;100.00;98975.56;1625625;87;21582;-71
2022/03/31 08:30:08;;;;;;;17.92;6.70;;;;;;;14.58;100.00;98971.09;1625394;88;21071;-70
2022/03/31 08:32:36;;;;;;;20.30;6.67;;;;;;;14.97;100.00;98966.84;1586293;88;21584;-72
2022/03/31 08:35:04;;;;;;;23.12;6.58;;;;;;;15.35;100.00;98982.11;1581776;91;21122;-71
2022/03/31 08:37:31;;;;;;;30.70;7.62;;;;;;;15.55;100.00;98984.06;1561498;91;21125;-71
2022/03/31 08:39:59;;;;;;;28.77;6.40;;;;;;;15.73;100.00;99015.90;1579789;89;21579;-72
2022/03/31 08:42:26;;;;;;;31.12;6.90;;;;;;;15.85;100.00;99026.08;1574686;89;21163;-71
2022/03/31 08:44:54;;;;;;;152.70;16.62;;;;;;;15.85;100.00;99066.42;1591495;89;21606;-72
2022/03/31 08:47:21;;;;;;;19.20;6.30;;;;;;;15.94;100.00;99047.86;1564130;89;21106;-72
2022/03/31 08:49:48;;;;;;;16.87;5.92;;;;;;;16.06;100.00;99050.10;1588611;90;21555;-72
2022/03/31 08:52:15;;;;;;;18.57;6.08;;;;;;;16.28;100.00;99045.48;1589358;89;21089;-71
2022/03/31 08:54:43;;;;;;;25.05;6.75;;;;;;;16.37;100.00;99069.17;1570792;89;21642;-73
2022/03/31 08:57:11;;;;;;;17.90;6.92;;;;;;;16.50;100.00;99109.89;1578221;90;21120;-71
2022/03/31 08:59:39;;;;;;;20.00;6.58;;;;;;;16.80;100.00;99134.95;1574217;90;21111;-72
2022/03/31 09:02:07;;;;;;;25.32;7.00;;;;;;;17.07;100.00;99128.04;1564478;92;21115;-73
2022/03/31 09:04:34;;;;;;;23.67;6.63;;;;;;;17.39;100.00;99118.13;1612816;85;21108;-69
2022/03/31 09:07:07;;;;;;;25.05;6.90;;;;;;;17.65;100.00;99134.58;1686890;85;21079;-72
2022/03/31 09:09:47;;;;;;;42.70;8.28;;;;;;;17.83;100.00;99121.84;1671067;85;21093;-72
2022/03/31 09:12:15;;;;;;;20.35;5.80;;;;;;;17.90;100.00;99124.45;1645229;86;21091;-72
2022/03/31 09:14:43;;;;;;;15.98;5.80;;;;;;;17.86;100.00;99119.17;1683400;84;21123;-70
2022/03/31 09:17:14;;;;;;;22.45;6.97;;;;;;;17.86;100.00;99121.36;1681932;84;21754;-73
2022/03/31 09:19:43;;;;;;;27.48;6.62;;;;;;;18.13;100.00;99094.83;1687103;84;21271;-71
2022/03/31 09:22:10;;;;;;;26.87;6.78;;;;;;;18.42;100.00;99096.22;1688683;84;21036;-71
2022/03/31 09:24:39;;;;;;;28.85;6.37;;;;;;;18.62;100.00;99080.69;1665960;84;21067;-71
2022/03/31 09:27:07;;;;;;;31.73;6.37;;;;;;;18.59;100.00;99077.88;1686344;84;21120;-70
2022/03/31 09:29:34;;;;;;;26.07;6.75;;;;;;;18.69;100.00;99084.91;1682540;84;21068;-72
2022/03/31 09:32:15;;;;;;;29.20;6.65;;;;;;;18.85;100.00;99081.92;1681295;85;21050;-73
2022/03/31 09:34:45;;;;;;;26.48;6.60;;;;;;;18.87;100.00;99078.94;1675725;83;21045;-71
2022/03/31 09:37:12;;;;;;;26.57;7.15;;;;;;;18.79;100.00;99085.09;1719637;82;21562;-69
2022/03/31 09:39:41;;;;;;;22.75;6.30;;;;;;;18.74;100.00;99071.31;1739695;82;21031;-72
2022/03/31 09:42:13;;;;;;;23.50;6.53;;;;;;;18.67;100.00;99078.03;1742541;82;20996;-71
2022/03/31 09:44:42;;;;;;;21.45;6.00;;;;;;;18.47;100.00;99049.23;1720035;82;21086;-73
2022/03/31 09:47:10;;;;;;;19.07;5.80;;;;;;;18.30;100.00;99073.82;1738618;82;21042;-72
2022/03/31 09:49:37;;;;;;;49.35;7.40;;;;;;;18.24;100.00;99091.75;1718641;82;21484;-71
2022/03/31 09:52:07;;;;;;;23.35;6.87;;;;;;;18.17;100.00;99084.53;1719110;82;21047;-73
2022/03/31 09:54:35;;;;;;;24.23;6.75;;;;;;;18.08;100.00;99068.22;1761440;81;20987;-71
2022/03/31 09:57:06;;;;;;;28.62;6.70;;;;;;;18.07;100.00;99065.17;1767924;80;21060;-72
2022/03/31 09:59:35;;;;;;;22.93;5.50;;;;;;;18.11;100.00;99036.80;1746208;81;21095;-71
2022/03/31 10:02:02;;;;;;;31.68;6.65;;;;;;;18.10;99.32;99058.41;1777375;80;21495;-72
2022/03/31 10:04:31;;;;;;;43.33;8.00;;;;;;;18.14;97.69;99056.83;1776121;81;21060;-72
2022/03/31 10:07:00;;;;;;;19.95;6.10;;;;;;;18.11;94.39;99048.56;1775711;81;21075;-72
2022/03/31 10:09:27;;;;;;;23.67;6.00;;;;;;;18.08;95.72;99041.37;1777104;80;21548;-72
2022/03/31 10:12:19;;;;;;;21.05;6.10;;;;;;;18.21;92.85;99060.25;1768544;81;21042;-71
2022/03/31 10:15:14;;;;;;;16.55;5.80;;;;;;;18.45;91.90;99042.33;1791431;79;21541;-70
2022/03/31 10:17:42;;;;;;;29.77;5.95;;;;;;;18.66;91.25;99062.67;1746730;80;21092;-73
2022/03/31 10:20:14;;;;;;;19.70;5.65;;;;;;;18.91;83.21;99039.01;1777043;80;21102;-72
2022/03/31 10:25:41;;;;;;;33.18;6.42;;;;;;;19.25;79.70;99033.51;1610000;87;21597;-72
2022/03/31 10:28:16;;;;;;;30.40;6.10;;;;;;;19.30;78.64;99007.00;1612437;88;21117;-72
2022/03/31 10:30:59;;;;;;;38.73;6.78;;;;;;;19.22;72.71;99034.00;1640468;86;21089;-73
2022/03/31 10:36:15;;;;;;;32.35;6.65;;;;;;;18.81;72.08;99048.42;1559528;90;21095;-73
2022/03/31 10:38:59;;;;;;;37.10;7.22;;;;;;;18.66;66.52;99027.94;1507139;94;21675;-73
2022/03/31 10:41:36;;;;;;;24.20;5.58;;;;;;;18.43;66.39;99024.78;1484398;96;21590;-72
2022/03/31 10:44:17;;;;;;;25.17;5.85;;;;;;;18.30;68.97;99041.53;1473392;96;21097;-71
2022/03/31 10:46:47;;;;;;;39.30;6.58;;;;;;;18.28;70.25;99025.36;1528659;93;21101;-71
2022/03/31 10:49:20;;;;;;;21.62;5.15;;;;;;;18.35;71.21;99017.81;1528109;93;21130;-71
2022/03/31 10:51:48;;;;;;;25.63;5.67;;;;;;;18.48;66.77;99017.20;1529873;93;21583;-71
2022/03/31 10:54:28;;;;;;;22.48;5.42;;;;;;;18.53;65.69;99004.98;1521307;94;21089;-72
2022/03/31 10:57:07;;;;;;;38.95;6.47;;;;;;;18.65;65.70;99022.16;1501213;94;21085;-72
2022/03/31 10:59:36;;;;;;;27.00;5.58;;;;;;;18.78;60.39;99015.51;1522375;93;21546;-71
2022/03/31 11:02:20;;;;;;;29.70;6.50;;;;;;;18.79;59.29;98993.35;1524405;93;21175;-71
2022/03/31 11:04:57;;;;;;;32.00;6.20;;;;;;;18.89;57.65;99026.96;1532843;93;21602;-72
2022/03/31 11:07:25;;;;;;;26.25;5.95;;;;;;;19.13;55.48;98965.92;1532687;93;21094;-72
2022/03/31 11:12:41;;;;;;;29.10;5.78;;;;;;;19.72;54.91;98979.01;1503516;95;21134;-70
2022/03/31 11:15:15;;;;;;;22.87;5.22;;;;;;;20.10;51.43;98967.62;1516369;94;21180;-72
2022/03/31 11:17:43;;;;;;;35.73;6.45;;;;;;;20.13;50.02;98955.28;1524486;94;21096;-71
2022/03/31 11:20:22;;;;;;;27.62;5.60;;;;;;;20.07;50.59;98958.53;1519386;93;21642;-71
2022/03/31 11:25:27;;;;;;;28.55;5.78;;;;;;;20.17;49.75;98964.67;1447976;99;21172;-72
2022/03/31 11:27:56;;;;;;;32.08;6.40;;;;;;;20.22;49.54;98955.12;1424119;99;21190;-71
2022/03/31 11:30:25;;;;;;;28.55;6.92;;;;;;;20.29;48.41;98976.31;1437137;100;21106;-72
2022/03/31 11:32:56;;;;;;;21.57;5.10;;;;;;;20.27;48.07;98964.77;1440834;99;21152;-71
2022/03/31 11:35:26;;;;;;;27.98;5.55;;;;;;;20.28;48.71;98961.48;1482520;95;21118;-71
2022/03/31 11:38:03;;;;;;;41.65;7.72;;;;;;;20.33;49.20;98950.55;1515537;95;21075;-71
2022/03/31 11:40:32;;;;;;;96.67;10.55;;;;;;;20.37;49.01;98945.35;1515867;93;21147;-72
2022/03/31 11:43:04;;;;;;;30.32;5.97;;;;;;;20.40;48.54;98955.27;1515024;94;21143;-71